sensor_id;sensor_type;location;lat;lon;timestamp;pressure;altitude;pressure_sealevel;temperature;humidity
11542;BME280;5827;49.482;7.716;2023-02-04T00:01:35;100149.09;;;9.73;100.00
11542;BME280;5827;49.482;7.716;2023-02-04T00:03:36;100149.94;;;9.80;100.00
11542;BME280;5827;49.482;7.716;2023-02-04T00:05:38;100155.88;;;9.69;100.00
11542;BME280;5827;49.482;7.716;2023-02-04T00:07:39;100156.53;;;9.84;100.00
11542;BME280;5827;49.482;7.716;2023-02-04T00:09:41;100157.13;;;9.80;100.00
11542;BME280;5827;49.482;7.716;2023-02-04T00:11:43;100161.06;;;9.84;100.00
11542;BME280;5827;49.482;7.716;2023-02-04T00:13:45;100164.53;;;9.71;100.00
11542;BME280;5827;49.482;7.716;2023-02-04T00:15:46;100175.88;;;9.80;100.00
11542;BME280;5827;49.482;7.716;2023-02-04T00:17:49;100185.16;;;9.90;100.00
11542;BME280;5827;49.482;7.716;2023-02-04T00:19:50;100183.50;;;9.89;100.00
11542;BME280;5827;49.482;7.716;2023-02-04T00:21:52;100173.84;;;10.02;100.00
11542;BME280;5827;49.482;7.716;2023-02-04T00:23:53;100181.88;;;10.02;100.00
11542;BME280;5827;49.482;7.716;2023-02-04T00:25:55;100194.44;;;10.01;100.00
11542;BME280;5827;49.482;7.716;2023-02-04T00:27:56;100195.47;;;10.00;100.00
11542;BME280;5827;49.482;7.716;2023-02-04T00:29:58;100194.59;;;9.80;100.00
11542;BME280;5827;49.482;7.716;2023-02-04T00:31:59;100193.81;;;9.92;100.00
11542;BME280;5827;49.482;7.716;2023-02-04T00:34:02;100193.38;;;9.89;100.00
11542;BME280;5827;49.482;7.716;2023-02-04T00:36:04;100199.75;;;9.75;100.00
11542;BME280;5827;49.482;7.716;2023-02-04T00:38:06;100209.66;;;9.94;100.00
11542;BME280;5827;49.482;7.716;2023-02-04T00:40:09;100200.00;;;10.06;100.00
11542;BME280;5827;49.482;7.716;2023-02-04T00:42:11;100198.97;;;10.07;100.00
11542;BME280;5827;49.482;7.716;2023-02-04T00:44:12;100204.94;;;10.03;100.00
11542;BME280;5827;49.482;7.716;2023-02-04T00:46:14;100194.44;;;9.95;100.00
11542;BME280;5827;49.482;7.716;2023-02-04T00:48:15;100194.03;;;9.98;100.00
11542;BME280;5827;49.482;7.716;2023-02-04T00:50:18;100195.47;;;10.00;100.00
11542;BME280;5827;49.482;7.716;2023-02-04T00:52:20;100195.66;;;9.99;100.00
11542;BME280;5827;49.482;7.716;2023-02-04T00:54:21;100201.44;;;10.02;100.00
11542;BME280;5827;49.482;7.716;2023-02-04T00:56:23;100201.25;;;10.10;100.00
11542;BME280;5827;49.482;7.716;2023-02-04T00:58:24;100204.97;;;10.16;100.00
11542;BME280;5827;49.482;7.716;2023-02-04T01:00:26;100209.25;;;9.97;100.00
11542;BME280;5827;49.482;7.716;2023-02-04T01:02:27;100219.56;;;10.07;100.00
11542;BME280;5827;49.482;7.716;2023-02-04T01:04:29;100221.44;;;10.06;100.00
11542;BME280;5827;49.482;7.716;2023-02-04T01:06:32;100211.56;;;10.13;100.00
11542;BME280;5827;49.482;7.716;2023-02-04T01:08:33;100227.41;;;10.15;100.00
11542;BME280;5827;49.482;7.716;2023-02-04T01:10:35;100224.13;;;10.13;100.00
11542;BME280;5827;49.482;7.716;2023-02-04T01:12:36;100219.75;;;9.92;100.00
11542;BME280;5827;49.482;7.716;2023-02-04T01:14:38;100219.38;;;10.08;100.00
11542;BME280;5827;49.482;7.716;2023-02-04T01:16:39;100224.13;;;10.00;100.00
11542;BME280;5827;49.482;7.716;2023-02-04T01:18:41;100220.59;;;9.86;100.00
11542;BME280;5827;49.482;7.716;2023-02-04T01:20:42;100219.97;;;9.97;100.00
11542;BME280;5827;49.482;7.716;2023-02-04T01:22:45;100219.75;;;9.99;100.00
11542;BME280;5827;49.482;7.716;2023-02-04T01:24:47;100221.84;;;10.10;100.00
11542;BME280;5827;49.482;7.716;2023-02-04T01:26:49;100227.41;;;9.95;100.00
11542;BME280;5827;49.482;7.716;2023-02-04T01:28:51;100233.56;;;10.02;100.00
11542;BME280;5827;49.482;7.716;2023-02-04T01:30:53;100239.78;;;10.16;100.00
11542;BME280;5827;49.482;7.716;2023-02-04T01:32:54;100237.47;;;9.86;100.00
11542;BME280;5827;49.482;7.716;2023-02-04T01:34:56;100234.28;;;9.56;100.00
11542;BME280;5827;49.482;7.716;2023-02-04T01:36:57;100238.09;;;9.34;100.00
11542;BME280;5827;49.482;7.716;2023-02-04T01:39:00;100239.72;;;9.28;100.00
11542;BME280;5827;49.482;7.716;2023-02-04T01:41:03;100245.22;;;9.20;100.00
11542;BME280;5827;49.482;7.716;2023-02-04T01:43:05;100247.44;;;9.10;100.00
11542;BME280;5827;49.482;7.716;2023-02-04T01:45:08;100240.06;;;9.12;100.00
11542;BME280;5827;49.482;7.716;2023-02-04T01:47:09;100247.94;;;9.27;100.00
11542;BME280;5827;49.482;7.716;2023-02-04T01:49:11;100249.09;;;9.11;100.00
11542;BME280;5827;49.482;7.716;2023-02-04T01:51:15;100243.19;;;9.22;100.00
11542;BME280;5827;49.482;7.716;2023-02-04T01:53:19;100252.28;;;9.34;100.00
11542;BME280;5827;49.482;7.716;2023-02-04T01:55:26;100252.28;;;9.34;100.00
11542;BME280;5827;49.482;7.716;2023-02-04T01:57:29;100253.66;;;9.17;100.00
11542;BME280;5827;49.482;7.716;2023-02-04T01:59:32;100254.94;;;9.28;100.00
11542;BME280;5827;49.482;7.716;2023-02-04T02:01:36;100248.34;;;9.24;100.00
11542;BME280;5827;49.482;7.716;2023-02-04T02:03:38;100254.13;;;9.27;100.00
11542;BME280;5827;49.482;7.716;2023-02-04T02:05:42;100255.91;;;9.13;100.00
11542;BME280;5827;49.482;7.716;2023-02-04T02:07:44;100251.50;;;8.99;100.00
11542;BME280;5827;49.482;7.716;2023-02-04T02:09:46;100259.59;;;9.12;100.00
11542;BME280;5827;49.482;7.716;2023-02-04T02:11:48;100272.63;;;9.29;100.00
11542;BME280;5827;49.482;7.716;2023-02-04T02:13:50;100265.31;;;9.03;100.00
11542;BME280;5827;49.482;7.716;2023-02-04T02:15:52;100272.25;;;8.97;100.00
11542;BME280;5827;49.482;7.716;2023-02-04T02:17:54;100277.19;;;9.00;100.00
11542;BME280;5827;49.482;7.716;2023-02-04T02:19:55;100272.56;;;8.81;100.00
11542;BME280;5827;49.482;7.716;2023-02-04T02:22:01;100265.06;;;8.70;100.00
11542;BME280;5827;49.482;7.716;2023-02-04T02:24:23;100273.63;;;8.86;100.00
11542;BME280;5827;49.482;7.716;2023-02-04T02:26:25;100258.94;;;9.04;100.00
11542;BME280;5827;49.482;7.716;2023-02-04T02:28:27;100268.94;;;8.95;100.00
11542;BME280;5827;49.482;7.716;2023-02-04T02:30:29;100262.78;;;8.95;100.00
11542;BME280;5827;49.482;7.716;2023-02-04T02:32:31;100256.63;;;9.01;100.00
11542;BME280;5827;49.482;7.716;2023-02-04T02:34:33;100255.63;;;9.02;100.00
11542;BME280;5827;49.482;7.716;2023-02-04T02:36:35;100265.03;;;8.98;100.00
11542;BME280;5827;49.482;7.716;2023-02-04T02:38:38;100264.81;;;8.93;100.00
11542;BME280;5827;49.482;7.716;2023-02-04T02:40:41;100252.69;;;8.97;100.00
11542;BME280;5827;49.482;7.716;2023-02-04T02:42:44;100268.84;;;8.82;100.00
11542;BME280;5827;49.482;7.716;2023-02-04T02:44:49;100264.78;;;8.86;100.00
11542;BME280;5827;49.482;7.716;2023-02-04T02:46:51;100263.50;;;8.82;100.00
11542;BME280;5827;49.482;7.716;2023-02-04T02:48:53;100264.13;;;8.84;100.00
11542;BME280;5827;49.482;7.716;2023-02-04T02:50:55;100267.44;;;8.86;100.00
11542;BME280;5827;49.482;7.716;2023-02-04T02:52:57;100271.22;;;8.70;100.00
11542;BME280;5827;49.482;7.716;2023-02-04T02:54:58;100270.91;;;8.80;100.00
11542;BME280;5827;49.482;7.716;2023-02-04T02:57:01;100278.28;;;8.78;100.00
11542;BME280;5827;49.482;7.716;2023-02-04T02:59:11;100270.28;;;8.56;100.00
11542;BME280;5827;49.482;7.716;2023-02-04T03:01:13;100275.84;;;8.55;100.00
11542;BME280;5827;49.482;7.716;2023-02-04T03:03:18;100278.63;;;8.68;100.00
11542;BME280;5827;49.482;7.716;2023-02-04T03:05:22;100283.16;;;8.68;100.00
11542;BME280;5827;49.482;7.716;2023-02-04T03:07:24;100282.91;;;8.62;100.00
11542;BME280;5827;49.482;7.716;2023-02-04T03:09:27;100282.25;;;8.60;100.00
11542;BME280;5827;49.482;7.716;2023-02-04T03:11:29;100287.84;;;8.65;100.00
11542;BME280;5827;49.482;7.716;2023-02-04T03:13:33;100295.22;;;8.85;100.00
11542;BME280;5827;49.482;7.716;2023-02-04T03:15:36;100301.63;;;8.69;100.00
11542;BME280;5827;49.482;7.716;2023-02-04T03:17:38;100306.53;;;8.65;100.00
11542;BME280;5827;49.482;7.716;2023-02-04T03:19:40;100305.34;;;8.47;100.00
11542;BME280;5827;49.482;7.716;2023-02-04T03:21:42;100300.00;;;8.68;100.00
11542;BME280;5827;49.482;7.716;2023-02-04T03:23:44;100310.47;;;8.70;100.00
11542;BME280;5827;49.482;7.716;2023-02-04T03:25:45;100314.44;;;8.74;100.00
11542;BME280;5827;49.482;7.716;2023-02-04T03:27:47;100325.94;;;8.74;100.00
11542;BME280;5827;49.482;7.716;2023-02-04T03:29:50;100337.06;;;8.56;100.00
11542;BME280;5827;49.482;7.716;2023-02-04T03:31:52;100332.84;;;8.40;100.00
11542;BME280;5827;49.482;7.716;2023-02-04T03:33:54;100337.59;;;8.67;100.00
11542;BME280;5827;49.482;7.716;2023-02-04T03:35:56;100331.09;;;8.76;100.00
11542;BME280;5827;49.482;7.716;2023-02-04T03:37:57;100338.50;;;8.52;100.00
11542;BME280;5827;49.482;7.716;2023-02-04T03:39:59;100344.84;;;8.73;100.00
11542;BME280;5827;49.482;7.716;2023-02-04T03:42:00;100350.19;;;8.73;100.00
11542;BME280;5827;49.482;7.716;2023-02-04T03:44:02;100346.78;;;8.57;100.00
11542;BME280;5827;49.482;7.716;2023-02-04T03:46:05;100350.69;;;8.40;100.00
11542;BME280;5827;49.482;7.716;2023-02-04T03:48:06;100344.72;;;8.38;100.00
11542;BME280;5827;49.482;7.716;2023-02-04T03:50:08;100342.13;;;8.45;100.00
11542;BME280;5827;49.482;7.716;2023-02-04T03:52:12;100348.41;;;8.37;100.00
11542;BME280;5827;49.482;7.716;2023-02-04T03:54:13;100350.91;;;8.38;100.00
11542;BME280;5827;49.482;7.716;2023-02-04T03:56:15;100351.09;;;8.58;100.00
11542;BME280;5827;49.482;7.716;2023-02-04T03:58:16;100341.19;;;8.52;100.00
11542;BME280;5827;49.482;7.716;2023-02-04T04:00:18;100352.69;;;8.53;100.00
11542;BME280;5827;49.482;7.716;2023-02-04T04:02:21;100354.34;;;8.54;100.00
11542;BME280;5827;49.482;7.716;2023-02-04T04:04:23;100355.03;;;8.41;100.00
11542;BME280;5827;49.482;7.716;2023-02-04T04:06:24;100355.25;;;8.25;100.00
11542;BME280;5827;49.482;7.716;2023-02-04T04:08:26;100353.75;;;8.37;100.00
11542;BME280;5827;49.482;7.716;2023-02-04T04:10:27;100354.59;;;8.59;100.00
11542;BME280;5827;49.482;7.716;2023-02-04T04:12:29;100353.81;;;8.65;100.00
11542;BME280;5827;49.482;7.716;2023-02-04T04:14:31;100347.16;;;8.54;100.00
11542;BME280;5827;49.482;7.716;2023-02-04T04:16:33;100352.59;;;8.46;100.00
11542;BME280;5827;49.482;7.716;2023-02-04T04:18:36;100349.19;;;8.52;100.00
11542;BME280;5827;49.482;7.716;2023-02-04T04:20:37;100352.94;;;8.58;100.00
11542;BME280;5827;49.482;7.716;2023-02-04T04:22:39;100356.44;;;8.58;100.00
11542;BME280;5827;49.482;7.716;2023-02-04T04:24:40;100358.06;;;8.59;100.00
11542;BME280;5827;49.482;7.716;2023-02-04T04:26:42;100362.22;;;8.62;100.00
11542;BME280;5827;49.482;7.716;2023-02-04T04:28:43;100366.75;;;8.61;100.00
11542;BME280;5827;49.482;7.716;2023-02-04T04:30:45;100355.41;;;8.59;100.00
11542;BME280;5827;49.482;7.716;2023-02-04T04:32:46;100358.91;;;8.60;100.00
11542;BME280;5827;49.482;7.716;2023-02-04T04:34:49;100352.13;;;8.57;100.00
11542;BME280;5827;49.482;7.716;2023-02-04T04:36:51;100354.41;;;8.39;100.00
11542;BME280;5827;49.482;7.716;2023-02-04T04:38:52;100356.13;;;8.32;100.00
11542;BME280;5827;49.482;7.716;2023-02-04T04:40:54;100361.75;;;8.37;100.00
11542;BME280;5827;49.482;7.716;2023-02-04T04:42:55;100369.78;;;8.37;100.00
11542;BME280;5827;49.482;7.716;2023-02-04T04:44:57;100369.03;;;8.43;100.00
11542;BME280;5827;49.482;7.716;2023-02-04T04:46:58;100370.22;;;8.40;100.00
11542;BME280;5827;49.482;7.716;2023-02-04T04:49:00;100370.28;;;8.47;100.00
11542;BME280;5827;49.482;7.716;2023-02-04T04:51:03;100370.72;;;8.51;100.00
11542;BME280;5827;49.482;7.716;2023-02-04T04:53:04;100380.78;;;8.49;100.00
11542;BME280;5827;49.482;7.716;2023-02-04T04:55:10;100377.88;;;8.44;100.00
11542;BME280;5827;49.482;7.716;2023-02-04T04:57:11;100379.78;;;8.35;100.00
11542;BME280;5827;49.482;7.716;2023-02-04T04:59:13;100393.25;;;8.42;100.00
11542;BME280;5827;49.482;7.716;2023-02-04T05:01:14;100386.03;;;8.42;100.00
11542;BME280;5827;49.482;7.716;2023-02-04T05:03:16;100381.81;;;8.33;100.00
11542;BME280;5827;49.482;7.716;2023-02-04T05:05:17;100380.34;;;8.45;100.00
11542;BME280;5827;49.482;7.716;2023-02-04T05:07:20;100383.94;;;8.37;100.00
11542;BME280;5827;49.482;7.716;2023-02-04T05:09:22;100378.16;;;8.34;100.00
11542;BME280;5827;49.482;7.716;2023-02-04T05:11:23;100374.75;;;8.25;100.00
11542;BME280;5827;49.482;7.716;2023-02-04T05:13:25;100378.88;;;8.28;100.00
11542;BME280;5827;49.482;7.716;2023-02-04T05:15:26;100381.63;;;8.34;100.00
11542;BME280;5827;49.482;7.716;2023-02-04T05:17:28;100381.44;;;8.36;100.00
11542;BME280;5827;49.482;7.716;2023-02-04T05:19:29;100381.63;;;8.34;100.00
11542;BME280;5827;49.482;7.716;2023-02-04T05:21:30;100386.78;;;8.36;100.00
11542;BME280;5827;49.482;7.716;2023-02-04T05:23:33;100374.19;;;8.45;100.00
11542;BME280;5827;49.482;7.716;2023-02-04T05:25:35;100375.38;;;8.27;100.00
11542;BME280;5827;49.482;7.716;2023-02-04T05:27:36;100370.69;;;8.29;100.00
11542;BME280;5827;49.482;7.716;2023-02-04T05:29:38;100367.84;;;8.31;100.00
11542;BME280;5827;49.482;7.716;2023-02-04T05:31:39;100372.25;;;8.24;100.00
11542;BME280;5827;49.482;7.716;2023-02-04T05:33:41;100376.47;;;8.33;100.00
11542;BME280;5827;49.482;7.716;2023-02-04T05:35:42;100361.66;;;8.30;100.00
11542;BME280;5827;49.482;7.716;2023-02-04T05:37:44;100368.09;;;8.36;100.00
11542;BME280;5827;49.482;7.716;2023-02-04T05:39:47;100375.16;;;8.07;100.00
11542;BME280;5827;49.482;7.716;2023-02-04T05:41:48;100372.59;;;7.99;100.00
11542;BME280;5827;49.482;7.716;2023-02-04T05:43:50;100372.06;;;7.89;100.00
11542;BME280;5827;49.482;7.716;2023-02-04T05:45:51;100372.25;;;7.87;100.00
11542;BME280;5827;49.482;7.716;2023-02-04T05:47:53;100374.28;;;7.85;100.00
11542;BME280;5827;49.482;7.716;2023-02-04T05:49:54;100368.75;;;7.87;100.00
11542;BME280;5827;49.482;7.716;2023-02-04T05:51:56;100367.38;;;7.76;100.00
11542;BME280;5827;49.482;7.716;2023-02-04T05:53:57;100379.16;;;7.82;100.00
11542;BME280;5827;49.482;7.716;2023-02-04T05:56:00;100378.31;;;7.81;100.00
11542;BME280;5827;49.482;7.716;2023-02-04T05:58:02;100385.69;;;7.94;100.00
11542;BME280;5827;49.482;7.716;2023-02-04T06:00:04;100391.66;;;7.96;100.00
11542;BME280;5827;49.482;7.716;2023-02-04T06:02:06;100401.88;;;8.07;100.00
11542;BME280;5827;49.482;7.716;2023-02-04T06:04:08;100401.47;;;8.10;100.00
11542;BME280;5827;49.482;7.716;2023-02-04T06:06:09;100403.50;;;8.08;100.00
11542;BME280;5827;49.482;7.716;2023-02-04T06:08:11;100414.00;;;8.10;100.00
11542;BME280;5827;49.482;7.716;2023-02-04T06:10:15;100420.56;;;8.07;100.00
11542;BME280;5827;49.482;7.716;2023-02-04T06:12:18;100422.13;;;8.02;100.00
11542;BME280;5827;49.482;7.716;2023-02-04T06:14:19;100425.97;;;7.99;100.00
11542;BME280;5827;49.482;7.716;2023-02-04T06:16:21;100435.91;;;8.05;100.00
11542;BME280;5827;49.482;7.716;2023-02-04T06:18:22;100439.41;;;8.06;100.00
11542;BME280;5827;49.482;7.716;2023-02-04T06:20:24;100442.53;;;8.09;100.00
11542;BME280;5827;49.482;7.716;2023-02-04T06:22:25;100446.84;;;8.10;100.00
11542;BME280;5827;49.482;7.716;2023-02-04T06:24:27;100458.19;;;8.12;100.00
11542;BME280;5827;49.482;7.716;2023-02-04T06:26:28;100451.00;;;8.13;100.00
11542;BME280;5827;49.482;7.716;2023-02-04T06:28:31;100447.78;;;8.18;100.00
11542;BME280;5827;49.482;7.716;2023-02-04T06:30:33;100446.97;;;8.17;100.00
11542;BME280;5827;49.482;7.716;2023-02-04T06:32:36;100445.56;;;8.21;100.00
11542;BME280;5827;49.482;7.716;2023-02-04T06:34:38;100437.94;;;8.18;100.00
11542;BME280;5827;49.482;7.716;2023-02-04T06:36:39;100442.72;;;8.08;100.00
11542;BME280;5827;49.482;7.716;2023-02-04T06:38:41;100446.13;;;8.17;100.00
11542;BME280;5827;49.482;7.716;2023-02-04T06:40:42;100445.75;;;8.20;100.00
11542;BME280;5827;49.482;7.716;2023-02-04T06:42:44;100451.06;;;8.20;100.00
11542;BME280;5827;49.482;7.716;2023-02-04T06:44:46;100449.63;;;8.17;100.00
11542;BME280;5827;49.482;7.716;2023-02-04T06:46:48;100450.75;;;8.08;100.00
11542;BME280;5827;49.482;7.716;2023-02-04T06:48:50;100449.44;;;8.04;100.00
11542;BME280;5827;49.482;7.716;2023-02-04T06:50:51;100450.47;;;8.03;100.00
11542;BME280;5827;49.482;7.716;2023-02-04T06:52:52;100463.28;;;7.93;100.00
11542;BME280;5827;49.482;7.716;2023-02-04T06:54:54;100461.78;;;8.05;100.00
11542;BME280;5827;49.482;7.716;2023-02-04T06:56:55;100477.06;;;8.11;100.00
11542;BME280;5827;49.482;7.716;2023-02-04T06:59:02;100475.66;;;8.15;100.00
11542;BME280;5827;49.482;7.716;2023-02-04T07:01:05;100476.13;;;8.19;100.00
11542;BME280;5827;49.482;7.716;2023-02-04T07:03:07;100480.28;;;8.21;100.00
11542;BME280;5827;49.482;7.716;2023-02-04T07:05:08;100483.41;;;8.10;100.00
11542;BME280;5827;49.482;7.716;2023-02-04T07:07:10;100486.19;;;8.17;100.00
11542;BME280;5827;49.482;7.716;2023-02-04T07:09:12;100484.25;;;8.25;100.00
11542;BME280;5827;49.482;7.716;2023-02-04T07:11:13;100497.69;;;8.17;100.00
11542;BME280;5827;49.482;7.716;2023-02-04T07:13:15;100502.81;;;8.19;100.00
11542;BME280;5827;49.482;7.716;2023-02-04T07:15:16;100496.94;;;8.08;100.00
11542;BME280;5827;49.482;7.716;2023-02-04T07:17:19;100497.78;;;8.09;100.00
11542;BME280;5827;49.482;7.716;2023-02-04T07:19:21;100504.22;;;8.14;100.00
11542;BME280;5827;49.482;7.716;2023-02-04T07:21:22;100505.13;;;8.22;100.00
11542;BME280;5827;49.482;7.716;2023-02-04T07:23:24;100499.78;;;8.22;100.00
11542;BME280;5827;49.482;7.716;2023-02-04T07:25:27;100509.72;;;8.28;100.00
11542;BME280;5827;49.482;7.716;2023-02-04T07:27:28;100504.94;;;8.23;100.00
11542;BME280;5827;49.482;7.716;2023-02-04T07:29:30;100506.16;;;8.21;100.00
11542;BME280;5827;49.482;7.716;2023-02-04T07:31:32;100504.88;;;8.17;100.00
11542;BME280;5827;49.482;7.716;2023-02-04T07:33:35;100504.38;;;8.28;100.00
11542;BME280;5827;49.482;7.716;2023-02-04T07:35:36;100510.69;;;8.20;100.00
11542;BME280;5827;49.482;7.716;2023-02-04T07:37:38;100508.28;;;8.25;100.00
11542;BME280;5827;49.482;7.716;2023-02-04T07:39:40;100519.31;;;8.22;100.00
11542;BME280;5827;49.482;7.716;2023-02-04T07:41:41;100521.63;;;8.25;100.00
11542;BME280;5827;49.482;7.716;2023-02-04T07:43:43;100532.38;;;8.32;100.00
11542;BME280;5827;49.482;7.716;2023-02-04T07:45:44;100537.72;;;8.32;100.00
11542;BME280;5827;49.482;7.716;2023-02-04T07:47:45;100544.09;;;8.31;100.00
11542;BME280;5827;49.482;7.716;2023-02-04T07:49:48;100541.97;;;8.41;100.00
11542;BME280;5827;49.482;7.716;2023-02-04T07:51:50;100550.00;;;8.41;100.00
11542;BME280;5827;49.482;7.716;2023-02-04T07:53:51;100546.69;;;8.39;100.00
11542;BME280;5827;49.482;7.716;2023-02-04T07:55:53;100544.66;;;8.41;100.00
11542;BME280;5827;49.482;7.716;2023-02-04T07:57:54;100547.31;;;8.41;100.00
11542;BME280;5827;49.482;7.716;2023-02-04T07:59:56;100548.53;;;8.38;100.00
11542;BME280;5827;49.482;7.716;2023-02-04T08:01:58;100549.81;;;8.43;100.00
11542;BME280;5827;49.482;7.716;2023-02-04T08:04:01;100545.38;;;8.35;100.00
11542;BME280;5827;49.482;7.716;2023-02-04T08:06:04;100546.03;;;8.37;100.00
11542;BME280;5827;49.482;7.716;2023-02-04T08:08:05;100547.03;;;8.36;100.00
11542;BME280;5827;49.482;7.716;2023-02-04T08:10:08;100554.97;;;8.44;100.00
11542;BME280;5827;49.482;7.716;2023-02-04T08:12:10;100559.22;;;8.53;100.00
11542;BME280;5827;49.482;7.716;2023-02-04T08:14:11;100571.81;;;8.59;100.00
11542;BME280;5827;49.482;7.716;2023-02-04T08:16:13;100561.31;;;8.58;100.00
11542;BME280;5827;49.482;7.716;2023-02-04T08:18:14;100571.91;;;8.66;100.00
11542;BME280;5827;49.482;7.716;2023-02-04T08:20:16;100560.94;;;8.61;100.00
11542;BME280;5827;49.482;7.716;2023-02-04T08:22:19;100568.94;;;8.61;100.00
11542;BME280;5827;49.482;7.716;2023-02-04T08:24:20;100571.34;;;8.71;100.00
11542;BME280;5827;49.482;7.716;2023-02-04T08:26:22;100576.16;;;8.75;100.00
11542;BME280;5827;49.482;7.716;2023-02-04T08:28:23;100574.41;;;8.68;100.00
11542;BME280;5827;49.482;7.716;2023-02-04T08:30:25;100579.91;;;8.51;100.00
11542;BME280;5827;49.482;7.716;2023-02-04T08:32:26;100583.69;;;8.72;100.00
11542;BME280;5827;49.482;7.716;2023-02-04T08:34:29;100584.22;;;8.82;100.00
11542;BME280;5827;49.482;7.716;2023-02-04T08:36:31;100588.72;;;8.96;100.00
11542;BME280;5827;49.482;7.716;2023-02-04T08:38:33;100582.44;;;9.04;100.00
11542;BME280;5827;49.482;7.716;2023-02-04T08:40:35;100589.50;;;9.11;100.00
11542;BME280;5827;49.482;7.716;2023-02-04T08:42:37;100600.28;;;9.18;100.00
11542;BME280;5827;49.482;7.716;2023-02-04T08:44:38;100597.88;;;9.23;100.00
11542;BME280;5827;49.482;7.716;2023-02-04T08:46:39;100601.03;;;8.76;100.00
11542;BME280;5827;49.482;7.716;2023-02-04T08:48:41;100602.41;;;8.72;100.00
11542;BME280;5827;49.482;7.716;2023-02-04T08:50:43;100598.72;;;8.73;100.00
11542;BME280;5827;49.482;7.716;2023-02-04T08:52:44;100610.88;;;9.11;100.00
11542;BME280;5827;49.482;7.716;2023-02-04T08:54:47;100606.09;;;9.07;100.00
11542;BME280;5827;49.482;7.716;2023-02-04T08:56:48;100607.94;;;9.21;100.00
11542;BME280;5827;49.482;7.716;2023-02-04T08:58:50;100617.41;;;9.24;100.00
11542;BME280;5827;49.482;7.716;2023-02-04T09:00:52;100611.03;;;9.25;100.00
11542;BME280;5827;49.482;7.716;2023-02-04T09:02:53;100612.16;;;9.30;100.00
11542;BME280;5827;49.482;7.716;2023-02-04T09:04:55;100621.16;;;9.08;100.00
11542;BME280;5827;49.482;7.716;2023-02-04T09:06:56;100621.81;;;9.31;100.00
11542;BME280;5827;49.482;7.716;2023-02-04T09:08:58;100618.59;;;9.36;100.00
11542;BME280;5827;49.482;7.716;2023-02-04T09:11:01;100623.47;;;9.32;100.00
11542;BME280;5827;49.482;7.716;2023-02-04T09:13:02;100617.56;;;9.37;100.00
11542;BME280;5827;49.482;7.716;2023-02-04T09:15:04;100626.88;;;9.41;100.00
11542;BME280;5827;49.482;7.716;2023-02-04T09:17:06;100624.44;;;9.46;100.00
11542;BME280;5827;49.482;7.716;2023-02-04T09:19:07;100620.28;;;9.43;100.00
11542;BME280;5827;49.482;7.716;2023-02-04T09:21:11;100619.53;;;9.50;100.00
11542;BME280;5827;49.482;7.716;2023-02-04T09:23:13;100623.50;;;9.54;100.00
11542;BME280;5827;49.482;7.716;2023-02-04T09:25:15;100637.31;;;9.79;100.00
11542;BME280;5827;49.482;7.716;2023-02-04T09:27:18;100638.72;;;9.75;99.94
11542;BME280;5827;49.482;7.716;2023-02-04T09:29:20;100638.47;;;9.70;100.00
11542;BME280;5827;49.482;7.716;2023-02-04T09:31:21;100629.09;;;9.59;100.00
11542;BME280;5827;49.482;7.716;2023-02-04T09:33:23;100631.31;;;9.55;99.88
11542;BME280;5827;49.482;7.716;2023-02-04T09:35:24;100630.56;;;9.61;100.00
11542;BME280;5827;49.482;7.716;2023-02-04T09:37:26;100640.31;;;9.69;100.00
11542;BME280;5827;49.482;7.716;2023-02-04T09:39:28;100645.63;;;9.62;99.40
11542;BME280;5827;49.482;7.716;2023-02-04T09:41:30;100638.91;;;9.52;99.87
11542;BME280;5827;49.482;7.716;2023-02-04T09:43:35;100644.72;;;9.55;99.62
11542;BME280;5827;49.482;7.716;2023-02-04T09:45:38;100653.44;;;9.64;99.44
11542;BME280;5827;49.482;7.716;2023-02-04T09:47:40;100657.69;;;9.37;98.87
11542;BME280;5827;49.482;7.716;2023-02-04T09:49:43;100657.53;;;9.60;99.38
11542;BME280;5827;49.482;7.716;2023-02-04T09:51:46;100661.97;;;9.53;97.91
11542;BME280;5827;49.482;7.716;2023-02-04T09:53:48;100668.56;;;9.72;97.43
11542;BME280;5827;49.482;7.716;2023-02-04T09:55:52;100666.56;;;9.80;96.49
11542;BME280;5827;49.482;7.716;2023-02-04T09:57:54;100669.88;;;9.82;97.14
11542;BME280;5827;49.482;7.716;2023-02-04T09:59:57;100663.47;;;9.77;97.46
11542;BME280;5827;49.482;7.716;2023-02-04T10:02:01;100669.13;;;9.67;96.73
11542;BME280;5827;49.482;7.716;2023-02-04T10:04:09;100678.81;;;9.68;96.17
11542;BME280;5827;49.482;7.716;2023-02-04T10:06:13;100676.59;;;9.72;96.23
11542;BME280;5827;49.482;7.716;2023-02-04T10:08:16;100676.63;;;9.57;97.09
11542;BME280;5827;49.482;7.716;2023-02-04T10:10:21;100677.84;;;9.54;96.25
11542;BME280;5827;49.482;7.716;2023-02-04T10:12:24;100671.47;;;9.55;95.76
11542;BME280;5827;49.482;7.716;2023-02-04T10:14:26;100681.09;;;9.71;95.71
11542;BME280;5827;49.482;7.716;2023-02-04T10:16:31;100689.78;;;9.73;95.93
11542;BME280;5827;49.482;7.716;2023-02-04T10:18:33;100684.69;;;9.78;94.97
11542;BME280;5827;49.482;7.716;2023-02-04T10:20:35;100684.47;;;9.80;96.40
11542;BME280;5827;49.482;7.716;2023-02-04T10:22:38;100690.97;;;9.71;95.90
11542;BME280;5827;49.482;7.716;2023-02-04T10:24:39;100689.38;;;9.98;95.34
11542;BME280;5827;49.482;7.716;2023-02-04T10:26:41;100685.09;;;10.03;96.01
11542;BME280;5827;49.482;7.716;2023-02-04T10:28:43;100687.47;;;10.13;94.35
11542;BME280;5827;49.482;7.716;2023-02-04T10:30:45;100689.00;;;10.22;91.99
11542;BME280;5827;49.482;7.716;2023-02-04T10:32:48;100688.28;;;10.35;92.87
11542;BME280;5827;49.482;7.716;2023-02-04T10:34:56;100694.78;;;10.47;91.58
11542;BME280;5827;49.482;7.716;2023-02-04T10:36:58;100693.97;;;10.53;91.65
11542;BME280;5827;49.482;7.716;2023-02-04T10:39:01;100692.78;;;10.56;91.76
11542;BME280;5827;49.482;7.716;2023-02-04T10:41:04;100698.81;;;10.64;90.65
11542;BME280;5827;49.482;7.716;2023-02-04T10:43:09;100692.31;;;10.46;89.77
11542;BME280;5827;49.482;7.716;2023-02-04T10:45:21;100694.09;;;10.17;90.94
11542;BME280;5827;49.482;7.716;2023-02-04T10:47:24;100696.19;;;10.22;90.51